createdAt,value
2018-02-20T05:11:31.040Z,100834.45
2018-02-20T05:14:00.185Z,100829.50
2018-02-20T05:16:29.637Z,100833.20
2018-02-20T05:18:59.412Z,100826.30
2018-02-20T05:21:28.353Z,100837.45
2018-02-20T05:23:57.227Z,100841.22
2018-02-20T05:26:28.557Z,100830.25
2018-02-20T05:28:57.414Z,100846.48
2018-02-20T05:31:26.237Z,100829.50
2018-02-20T05:33:55.222Z,100833.55
2018-02-20T05:36:24.160Z,100836.71
2018-02-20T05:38:53.137Z,100842.16
2018-02-20T05:41:23.073Z,100836.73
2018-02-20T05:43:52.110Z,100846.85
2018-02-20T05:46:20.945Z,100849.67
2018-02-20T05:48:50.034Z,100853.25
2018-02-20T05:51:18.887Z,100841.56
2018-02-20T05:53:47.880Z,100844.36
2018-02-20T05:56:17.730Z,100858.93
2018-02-20T05:58:46.834Z,100855.16
2018-02-20T06:01:17.355Z,100848.45
2018-02-20T06:03:48.023Z,100860.62
2018-02-20T06:06:17.061Z,100858.16
2018-02-20T06:08:46.085Z,100841.88
2018-02-20T06:11:16.715Z,100846.45
2018-02-20T06:13:46.226Z,100845.59
2018-02-20T06:16:15.429Z,100843.78
2018-02-20T06:18:44.309Z,100842.03
2018-02-20T06:21:13.371Z,100858.50
2018-02-20T06:23:43.734Z,100856.77
2018-02-20T06:26:13.892Z,100846.94
2018-02-20T06:28:42.840Z,100845.84
2018-02-20T06:31:11.871Z,100836.48
2018-02-20T06:33:40.940Z,100828.34
2018-02-20T06:36:10.131Z,100838.83
2018-02-20T06:38:40.575Z,100838.17
2018-02-20T06:41:10.400Z,100836.91
2018-02-20T06:43:39.989Z,100846.22
2018-02-20T06:46:08.975Z,100826.19
2018-02-20T06:48:42.679Z,100833.05
2018-02-20T06:51:12.750Z,100830.70
2018-02-20T06:53:41.890Z,100823.86
2018-02-20T06:56:10.979Z,100833.37
2018-02-20T06:58:39.924Z,100822.46
2018-02-20T07:01:14.084Z,100856.86
2018-02-20T07:03:43.136Z,100828.86
2018-02-20T07:06:12.018Z,100830.63
2018-02-20T07:08:41.292Z,100852.12
2018-02-20T07:11:10.821Z,100848.73
2018-02-20T07:13:39.904Z,100845.69
2018-02-20T07:16:09.606Z,100854.31
2018-02-20T07:18:38.590Z,100847.53
2018-02-20T07:21:07.484Z,100847.59
2018-02-20T07:23:40.777Z,100858.08
2018-02-20T07:26:09.880Z,100849.23
2018-02-20T07:28:39.829Z,100848.34
2018-02-20T07:31:08.886Z,100859.53
2018-02-20T07:33:37.979Z,100840.68
2018-02-20T07:36:07.945Z,100840.61
2018-02-20T07:38:36.990Z,100831.30
2018-02-20T07:41:05.831Z,100825.75
2018-02-20T07:43:34.752Z,100838.89
2018-02-20T07:46:04.843Z,100826.03
2018-02-20T07:48:33.931Z,100838.78
2018-02-20T07:51:02.825Z,100838.91
2018-02-20T07:53:31.925Z,100820.81
2018-02-20T07:56:00.867Z,100821.91
2018-02-20T07:58:29.864Z,100832.38
2018-02-20T08:01:04.535Z,100837.02
2018-02-20T08:03:34.210Z,100823.02
2018-02-20T08:06:03.200Z,100827.11
2018-02-20T08:08:35.464Z,100826.03
2018-02-20T08:11:04.491Z,100831.26
2018-02-20T08:13:33.575Z,100817.73
2018-02-20T08:16:02.657Z,100825.70
2018-02-20T08:18:32.880Z,100829.55
2018-02-20T08:21:03.007Z,100822.31
2018-02-20T08:23:32.196Z,100815.41
2018-02-20T08:26:01.158Z,100831.67
2018-02-20T08:28:31.829Z,100835.34
2018-02-20T08:31:01.236Z,100828.63
2018-02-20T08:33:30.220Z,100837.50
2018-02-20T08:35:59.257Z,100830.09
2018-02-20T08:38:29.862Z,100818.75
2018-02-20T08:40:58.943Z,100815.39
2018-02-20T08:43:28.140Z,100820.68
2018-02-20T08:45:58.735Z,100818.54
2018-02-20T08:48:29.029Z,100830.88
2018-02-20T08:50:58.998Z,100812.58
2018-02-20T08:53:32.591Z,100816.54
2018-02-20T08:56:02.521Z,100815.48
2018-02-20T08:58:31.521Z,100822.39
2018-02-20T09:01:02.970Z,100832.09
2018-02-20T09:03:34.051Z,100814.22
2018-02-20T09:06:03.106Z,100832.77
2018-02-20T09:08:39.680Z,100828.80
2018-02-20T09:11:08.673Z,100822.23
2018-02-20T09:13:37.729Z,100828.95
2018-02-20T09:16:06.859Z,100824.75
2018-02-20T09:18:36.864Z,100825.27
2018-02-20T09:21:05.871Z,100818.14
2018-02-20T09:23:35.085Z,100814.14
2018-02-20T09:26:04.784Z,100818.53
2018-02-20T09:28:33.878Z,100813.91
2018-02-20T09:31:04.714Z,100812.86
2018-02-20T09:33:35.658Z,100813.97
2018-02-20T09:36:04.753Z,100812.08
2018-02-20T09:38:35.262Z,100805.02
2018-02-20T09:41:04.321Z,100815.06
2018-02-20T09:43:33.506Z,100798.09
2018-02-20T09:46:02.570Z,100800.42
2018-02-20T09:48:31.775Z,100793.80
2018-02-20T09:51:00.769Z,100801.98
2018-02-20T09:53:29.811Z,100791.42
2018-02-20T09:55:59.565Z,100792.55
2018-02-20T09:58:28.560Z,100795.73
2018-02-20T10:00:57.763Z,100790.36
2018-02-20T10:03:26.628Z,100780.64
2018-02-20T10:05:55.750Z,100775.00
2018-02-20T10:08:26.486Z,100772.78
2018-02-20T10:10:55.534Z,100779.87
2018-02-20T10:13:25.106Z,100769.61
2018-02-20T10:15:56.756Z,100778.35
2018-02-20T10:18:26.662Z,100757.98
2018-02-20T10:20:56.896Z,100767.00
2018-02-20T10:23:26.826Z,100789.95
2018-02-20T10:25:55.972Z,100755.64
2018-02-20T10:28:25.190Z,100752.66
2018-02-20T10:30:55.121Z,100758.87
2018-02-20T10:33:25.062Z,100758.09
2018-02-20T10:35:54.021Z,100774.99
2018-02-20T10:38:23.975Z,100758.45
2018-02-20T10:40:53.967Z,100755.81
2018-02-20T10:43:24.074Z,100762.09
2018-02-20T10:45:53.995Z,100745.68
2018-02-20T10:48:22.981Z,100747.33
2018-02-20T10:50:52.082Z,100745.79
2018-02-20T10:53:23.730Z,100741.16
2018-02-20T10:55:53.645Z,100742.91
2018-02-20T10:58:22.639Z,100736.07
2018-02-20T11:00:51.740Z,100732.75
2018-02-20T11:03:20.938Z,100734.33
2018-02-20T11:05:49.933Z,100737.33
2018-02-20T11:08:19.230Z,100729.95
2018-02-20T11:10:48.227Z,100732.91
2018-02-20T11:13:17.332Z,100725.30
2018-02-20T11:15:46.488Z,100723.62
2018-02-20T11:18:16.233Z,100726.91
2018-02-20T11:20:45.985Z,100726.66
2018-02-20T11:23:15.138Z,100727.91
2018-02-20T11:25:44.416Z,100722.97
2018-02-20T11:28:13.245Z,100731.14
2018-02-20T11:30:42.227Z,100714.16
2018-02-20T11:33:11.740Z,100716.76
2018-02-20T11:35:41.602Z,100721.36
2018-02-20T11:38:10.642Z,100717.28
2018-02-20T11:40:39.634Z,100708.16
2018-02-20T11:43:09.796Z,100715.75
2018-02-20T11:45:39.564Z,100713.91
2018-02-20T11:48:09.303Z,100705.25
2018-02-20T11:50:38.371Z,100704.84
2018-02-20T11:53:07.885Z,100708.29
2018-02-20T11:55:36.979Z,100696.02
2018-02-20T11:58:06.338Z,100703.00
2018-02-20T12:00:38.039Z,100695.30
2018-02-20T12:03:07.075Z,100689.52
2018-02-20T12:05:36.089Z,100693.52
2018-02-20T12:08:05.226Z,100688.89
2018-02-20T12:10:35.251Z,100695.17
2018-02-20T12:13:05.370Z,100689.81
2018-02-20T12:15:34.355Z,100686.45
2018-02-20T12:18:03.394Z,100690.35
2018-02-20T12:20:32.478Z,100683.52
2018-02-20T12:23:01.381Z,100683.42
2018-02-20T12:25:30.397Z,100696.61
2018-02-20T12:27:59.984Z,100676.02
2018-02-20T12:30:29.872Z,100675.64
2018-02-20T12:32:59.894Z,100685.91
2018-02-20T12:35:28.940Z,100677.89
2018-02-20T12:37:58.660Z,100676.23
2018-02-20T12:40:27.556Z,100671.63
2018-02-20T12:42:57.399Z,100675.05
2018-02-20T12:45:26.304Z,100663.38
2018-02-20T12:47:55.452Z,100677.20
2018-02-20T12:50:25.782Z,100664.61
2018-02-20T12:52:54.883Z,100676.47
2018-02-20T12:55:25.732Z,100676.48
2018-02-20T12:57:55.561Z,100669.67
2018-02-20T13:00:24.992Z,100669.78
2018-02-20T13:02:53.924Z,100665.19
2018-02-20T13:05:24.829Z,100664.86
2018-02-20T13:07:53.858Z,100668.56
2018-02-20T13:10:22.868Z,100655.64
2018-02-20T13:12:51.950Z,100680.77
2018-02-20T13:15:21.970Z,100671.95
2018-02-20T13:17:53.071Z,100658.94
2018-02-20T13:20:22.035Z,100663.59
2018-02-20T13:22:51.084Z,100656.80
2018-02-20T13:25:20.348Z,100658.94
2018-02-20T13:27:49.350Z,100662.00
2018-02-20T13:30:18.490Z,100664.98
2018-02-20T13:32:47.746Z,100655.83
2018-02-20T13:35:16.641Z,100665.86
2018-02-20T13:37:45.578Z,100654.96
2018-02-20T13:40:15.690Z,100644.94
2018-02-20T13:42:44.690Z,100647.39
2018-02-20T13:45:14.322Z,100641.95
2018-02-20T13:47:43.399Z,100642.26
2018-02-20T13:50:12.495Z,100648.30
2018-02-20T13:52:41.525Z,100668.86
2018-02-20T13:55:10.484Z,100635.73
2018-02-20T13:57:39.572Z,100637.30
2018-02-20T14:00:08.486Z,100631.98
2018-02-20T14:02:39.626Z,100642.87
2018-02-20T14:05:10.426Z,100639.98
2018-02-20T14:07:39.547Z,100637.03
2018-02-20T14:10:08.750Z,100635.61
2018-02-20T14:12:37.733Z,100641.61
2018-02-20T14:15:07.651Z,100643.86
2018-02-20T14:17:37.539Z,100636.34
2018-02-20T14:20:06.673Z,100624.34
2018-02-20T14:22:35.660Z,100628.00
2018-02-20T14:25:08.034Z,100633.27
2018-02-20T14:27:38.459Z,100632.34
2018-02-20T14:30:07.652Z,100624.97
2018-02-20T14:32:36.647Z,100635.90
2018-02-20T14:35:06.054Z,100636.68
2018-02-20T14:37:35.101Z,100622.40
2018-02-20T14:40:04.311Z,100618.69
2018-02-20T14:42:33.330Z,100627.34
2018-02-20T14:45:02.466Z,100632.34
2018-02-20T14:47:31.533Z,100621.50
2018-02-20T14:50:01.303Z,100623.23
2018-02-20T14:52:31.095Z,100615.73
2018-02-20T14:55:00.199Z,100621.19
2018-02-20T14:57:29.308Z,100610.55
2018-02-20T14:59:59.041Z,100617.47
2018-02-20T15:02:30.716Z,100612.35
2018-02-20T15:04:59.867Z,100621.06
2018-02-20T15:07:28.969Z,100614.66
2018-02-20T15:09:58.787Z,100610.86
2018-02-20T15:12:28.506Z,100610.88
2018-02-20T15:14:57.530Z,100621.77
2018-02-20T15:17:27.050Z,100620.95
2018-02-20T15:19:56.162Z,100618.48
2018-02-20T15:22:25.691Z,100616.28
2018-02-20T15:24:54.971Z,100620.91
2018-02-20T15:27:24.046Z,100620.93
2018-02-20T15:29:53.126Z,100617.13
2018-02-20T15:32:23.125Z,100613.68
2018-02-20T15:34:52.687Z,100620.23
2018-02-20T15:37:22.480Z,100616.20
2018-02-20T15:39:53.256Z,100615.81
2018-02-20T15:42:23.294Z,100609.98
2018-02-20T15:44:52.830Z,100618.42
2018-02-20T15:47:22.226Z,100618.38
2018-02-20T15:49:51.336Z,100622.50
2018-02-20T15:52:21.660Z,100617.41
2018-02-20T15:54:51.408Z,100614.99
2018-02-20T15:57:20.359Z,100611.70
2018-02-20T15:59:49.464Z,100626.04
2018-02-20T16:02:23.574Z,100621.89
2018-02-20T16:04:53.526Z,100619.23
2018-02-20T16:07:22.690Z,100619.19
2018-02-20T16:09:52.942Z,100615.46
2018-02-20T16:12:23.644Z,100620.52
2018-02-20T16:14:53.562Z,100613.22
2018-02-20T16:17:23.620Z,100616.66
2018-02-20T16:19:52.680Z,100617.48
2018-02-20T16:22:21.831Z,100618.05
2018-02-20T16:24:50.998Z,100620.97
2018-02-20T16:27:27.684Z,100622.19
2018-02-20T16:29:56.636Z,100619.25
2018-02-20T16:32:25.745Z,100630.20
2018-02-20T16:34:54.874Z,100626.86
2018-02-20T16:37:24.033Z,100622.75
2018-02-20T16:39:54.288Z,100627.75
2018-02-20T16:42:23.810Z,100625.26
2018-02-20T16:44:52.784Z,100623.91
2018-02-20T16:47:21.889Z,100621.82
2018-02-20T16:49:50.956Z,100620.55
2018-02-20T16:52:20.090Z,100619.66
2018-02-20T16:54:49.236Z,100617.64
2018-02-20T16:57:19.286Z,100615.12
2018-02-20T16:59:48.179Z,100615.55
2018-02-20T17:02:17.298Z,100611.80
2018-02-20T17:04:47.431Z,100610.52
2018-02-20T17:07:16.600Z,100621.92
2018-02-20T17:09:46.839Z,100617.34
2018-02-20T17:12:17.612Z,100619.73
2018-02-20T17:14:46.720Z,100619.47
2018-02-20T17:17:15.815Z,100624.53
2018-02-20T17:19:46.699Z,100619.37
2018-02-20T17:22:15.744Z,100634.45
2018-02-20T17:24:44.837Z,100634.59
2018-02-20T17:27:15.132Z,100624.84
2018-02-20T17:29:44.493Z,100643.28
2018-02-20T17:32:13.552Z,100624.91
2018-02-20T17:34:45.179Z,100627.37
2018-02-20T17:37:14.442Z,100626.47
2018-02-20T17:39:43.502Z,100640.72
2018-02-20T17:42:12.568Z,100632.78
2018-02-20T17:44:42.102Z,100623.47
2018-02-20T17:47:11.179Z,100625.53
2018-02-20T17:49:42.843Z,100626.49
2018-02-20T17:52:12.635Z,100627.80
2018-02-20T17:54:42.503Z,100624.59
2018-02-20T17:57:12.886Z,100626.34
2018-02-20T17:59:42.027Z,100632.19
2018-02-20T18:02:11.296Z,100625.98
2018-02-20T18:04:42.976Z,100637.19
2018-02-20T18:07:12.718Z,100633.81
2018-02-20T18:09:42.636Z,100619.94
2018-02-20T18:12:14.214Z,100633.91
2018-02-20T18:14:43.448Z,100630.89
2018-02-20T18:17:13.580Z,100632.63
2018-02-20T18:19:43.597Z,100638.58
2018-02-20T18:22:12.777Z,100632.22
2018-02-20T18:24:43.592Z,100648.55
2018-02-20T18:27:12.626Z,100635.15
2018-02-20T18:29:42.687Z,100638.04
2018-02-20T18:32:11.814Z,100630.11
2018-02-20T18:34:42.022Z,100630.45
2018-02-20T18:37:12.205Z,100645.72
2018-02-20T18:39:41.797Z,100640.27
2018-02-20T18:42:11.776Z,100634.84
2018-02-20T18:44:40.960Z,100642.33
2018-02-20T18:47:11.129Z,100634.72
2018-02-20T18:49:41.429Z,100641.45
2018-02-20T18:52:10.454Z,100628.02
2018-02-20T18:54:41.075Z,100636.78
2018-02-20T18:57:10.955Z,100622.94
2018-02-20T18:59:40.075Z,100622.08
2018-02-20T19:02:09.388Z,100636.39
2018-02-20T19:04:40.796Z,100626.84
2018-02-20T19:07:09.887Z,100657.82
2018-02-20T19:09:39.865Z,100638.97
2018-02-20T19:12:11.615Z,100620.01
2018-02-20T19:14:42.002Z,100633.05
2018-02-20T19:17:11.487Z,100630.88
2018-02-20T19:19:40.784Z,100632.55
2018-02-20T19:22:09.877Z,100619.92
2018-02-20T19:24:39.089Z,100629.51
2018-02-20T19:27:09.051Z,100628.81
2018-02-20T19:29:38.742Z,100629.11
2018-02-20T19:32:10.145Z,100625.31
2018-02-20T19:34:40.930Z,100621.41
2018-02-20T19:37:10.099Z,100631.00
2018-02-20T19:39:40.119Z,100613.29
2018-02-20T19:42:09.272Z,100623.72
2018-02-20T19:44:38.368Z,100615.73
2018-02-20T19:47:10.027Z,100619.12
2018-02-20T19:49:39.165Z,100614.58
2018-02-20T19:52:08.109Z,100617.11
2018-02-20T19:54:41.095Z,100620.06
2018-02-20T19:57:11.338Z,100616.23
2018-02-20T19:59:40.521Z,100614.59
2018-02-20T20:02:10.437Z,100606.00
2018-02-20T20:04:39.428Z,100611.27
2018-02-20T20:07:08.423Z,100607.03
2018-02-20T20:09:38.377Z,100611.41
2018-02-20T20:12:08.249Z,100609.16
2018-02-20T20:14:38.011Z,100598.23
2018-02-20T20:17:08.955Z,100604.46
2018-02-20T20:19:37.898Z,100604.45
2018-02-20T20:22:07.313Z,100602.38
2018-02-20T20:24:37.346Z,100608.17
2018-02-20T20:27:06.719Z,100600.77
2018-02-20T20:29:35.727Z,100604.92
2018-02-20T20:32:07.580Z,100600.31
2018-02-20T20:34:37.806Z,100599.44
2018-02-20T20:37:09.049Z,100600.78
2018-02-20T20:39:38.853Z,100596.59
2018-02-20T20:42:11.020Z,100596.09
2018-02-20T20:44:40.125Z,100594.47
2018-02-20T20:47:09.323Z,100603.66
2018-02-20T20:49:38.951Z,100588.03
2018-02-20T20:52:07.921Z,100601.04
2018-02-20T20:54:37.480Z,100597.14
2018-02-20T20:57:07.371Z,100599.45
2018-02-20T20:59:36.436Z,100593.13
2018-02-20T21:02:05.583Z,100597.77
2018-02-20T21:04:34.526Z,100588.14
2018-02-20T21:07:03.520Z,100594.42
2018-02-20T21:09:32.658Z,100586.88
2018-02-20T21:12:06.739Z,100587.00
2018-02-20T21:14:35.875Z,100593.48
2018-02-20T21:17:07.023Z,100587.80
2018-02-20T21:19:37.547Z,100590.44
2018-02-20T21:22:06.503Z,100590.77
2018-02-20T21:24:36.477Z,100593.78
2018-02-20T21:27:05.613Z,100593.44
2018-02-20T21:29:35.532Z,100593.16
2018-02-20T21:32:04.705Z,100593.50
2018-02-20T21:34:34.735Z,100591.85
2018-02-20T21:37:03.674Z,100597.69
2018-02-20T21:39:32.775Z,100591.52
2018-02-20T21:42:01.828Z,100593.67
2018-02-20T21:44:32.597Z,100590.99
2018-02-20T21:47:02.576Z,100596.90
2018-02-20T21:49:31.460Z,100588.88
2018-02-20T21:52:00.770Z,100588.45
2018-02-20T21:54:30.116Z,100599.87
2018-02-20T21:57:18.054Z,100585.10
2018-02-20T21:59:47.352Z,100592.63
2018-02-20T22:02:16.343Z,100577.56
2018-02-20T22:04:45.330Z,100582.98
2018-02-20T22:07:15.194Z,100572.95
2018-02-20T22:09:44.248Z,100558.31
2018-02-20T22:12:14.074Z,100570.44
2018-02-20T22:14:44.061Z,100570.93
2018-02-20T22:17:15.293Z,100570.28
2018-02-20T22:19:46.090Z,100574.09
2018-02-20T22:22:15.208Z,100574.58
2018-02-20T22:24:45.329Z,100577.05
2018-02-20T22:27:15.706Z,100567.69
2018-02-20T22:29:45.695Z,100560.66
2018-02-20T22:32:14.850Z,100565.27
2018-02-20T22:34:45.145Z,100566.23
2018-02-20T22:37:16.430Z,100571.14
2018-02-20T22:39:45.940Z,100570.34
2018-02-20T22:42:14.892Z,100566.12
2018-02-20T22:44:43.984Z,100566.83
2018-02-20T22:47:13.679Z,100557.30
2018-02-20T22:49:42.929Z,100557.02
2018-02-20T22:52:11.932Z,100556.03
2018-02-20T22:54:41.124Z,100551.53
2018-02-20T22:57:11.170Z,100561.52
2018-02-20T22:59:40.189Z,100547.18
2018-02-20T23:02:11.264Z,100545.83
2018-02-20T23:04:43.922Z,100553.81
2018-02-20T23:07:17.331Z,100548.00
2018-02-20T23:09:46.435Z,100551.39
2018-02-20T23:12:15.512Z,100547.72
2018-02-20T23:14:46.459Z,100550.17
2018-02-20T23:17:16.607Z,100547.70
2018-02-20T23:19:46.226Z,100541.83
2018-02-20T23:22:20.167Z,100536.02
2018-02-20T23:24:49.385Z,100535.39
2018-02-20T23:27:19.242Z,100534.54
2018-02-20T23:29:50.018Z,100537.05
2018-02-20T23:32:20.179Z,100533.30
2018-02-20T23:34:49.168Z,100539.13
2018-02-20T23:37:20.647Z,100523.09
2018-02-20T23:39:49.738Z,100531.21
2018-02-20T23:42:18.901Z,100532.88
2018-02-20T23:44:49.021Z,100532.53
2018-02-20T23:47:18.010Z,100527.00
2018-02-20T23:49:47.017Z,100513.11
2018-02-20T23:52:17.231Z,100524.98
2018-02-20T23:54:46.425Z,100529.29
2018-02-20T23:57:15.462Z,100533.47
2018-02-20T23:59:44.517Z,100533.16
